• Join FlightAware (Why Join?)
  • Login
  • US Flag 
03:59AM EDT


 

Airport Tracker/Info


-or-


 

Live Flight TrackerFlight Track Log ✈ UAL341 ✈ 03-May-2013 ✈ KDEN - KICT

Flight Track Log - Related Links

Times and Time Zones

All times are in EDT time to prevent confusion due to time zone crossing. See the UAL341 flight status page for this flight to view local times or setup timezone preferences in your user account.

Time Position Orientation Groundspeed Altitude Reporting Facility
EDT Latitude Longitude Course Direction KTS MPH feet Rate Location/Type
10:22PM 39.8833 -104.6000 125° Southeast 160 184 6,900  Level Denver TRACON
10:22PM 39.8742 -104.5831 125° Southeast 161 185 7,300 1,920 Climbing Denver Center
10:23PM 39.8472 -104.5083 115° Southeast 229 264 9,500 1,860 Climbing Denver Center
10:24PM 39.8089 -104.3986 114° Southeast 322 371 11,200 2,160 Climbing Denver Center
10:25PM 39.7656 -104.2811 116° Southeast 359 413 14,000 2,760 Climbing Denver Center
10:26PM 39.7250 -104.1525 112° Southeast 383 441 17,000 2,640 Climbing Denver Center
10:27PM 39.6861 -104.0072 109° East 399 459 19,500 2,280 Climbing Denver Center
10:28PM 39.6483 -103.8667 109° East 416 479 21,700 2,040 Climbing Denver Center
10:29PM 39.6064 -103.7225 111° Southeast 411 473 23,800 1,860 Climbing Denver Center
10:30PM 39.5658 -103.5731 109° East 434 499 25,600 1,560 Climbing Denver Center
10:31PM 39.5231 -103.4175 110° East 452 520 27,000 1,620 Climbing Denver Center
10:32PM 39.4789 -103.2594 110° East 460 529 29,000 1,740 Climbing Denver Center
10:33PM 39.4344 -103.1006 110° East 465 535 30,600 1,560 Climbing Denver Center
10:34PM 39.3881 -102.9389 110° East 472 543 32,200 1,140 Climbing Denver Center
10:35PM 39.3417 -102.7772 110° East 475 547 33,000 360 Climbing Denver Center
10:36PM 39.2883 -102.5933 110° East 467 537 33,000  Level Denver Center
10:37PM 39.2450 -102.4436 110° East 466 536 33,000  Level Denver Center
10:38PM 39.2011 -102.2933 111° Southeast 469 540 33,000  Level Denver Center
10:39PM 39.1508 -102.1200 110° East 464 534 33,000  Level Denver Center
10:41PM 39.1069 -101.9703 111° Southeast 466 536 33,000  Level Denver Center
10:42PM 39.0542 -101.7967 111° Southeast 466 536 33,000  Level Denver Center
10:43PM 39.0092 -101.6478 111° Southeast 465 535 33,000  Level Denver Center
10:44PM 38.9653 -101.4981 111° Southeast 467 537 33,000  Level Denver Center
10:45PM 38.9136 -101.3239 111° Southeast 467 537 33,000  Level Denver Center
10:46PM 38.8681 -101.1744 111° Southeast 467 537 33,000  Level Denver Center
10:47PM 38.8153 -101.0031 112° Southeast 464 534 33,000  Level Denver Center
10:48PM 38.7692 -100.8533 112° Southeast 470 541 33,000  Level Denver Center
10:49PM 38.7233 -100.7047 112° Southeast 468 539 33,000  Level Denver Center
10:50PM 38.6694 -100.5303 112° Southeast 472 543 33,000  Level Denver Center
10:51PM 38.6242 -100.3831 111° Southeast 465 535 33,000  Level Denver Center
10:52PM 38.5700 -100.2122 112° Southeast 464 534 33,000  Level Denver Center
10:53PM 38.5233 -100.0650 112° Southeast 465 535 33,000  Level Denver Center
10:54PM 38.4769 -99.9192 112° Southeast 464 534 33,000  Level Denver Center
10:54PM 38.4361 -99.7936 113° Southeast 466 536 33,000  Level Kansas City Center
10:56PM 38.3883 -99.6483 113° Southeast 465 535 33,000  Level Kansas City Center
10:57PM 38.3419 -99.5044 112° Southeast 461 531 33,000 -360 Level Kansas City Center
10:58PM 38.2939 -99.3544 112° Southeast 459 528 32,300 -1,380 Descending Kansas City Center
10:59PM 38.2450 -99.2061 113° Southeast 456 525 30,200 -2,160 Descending Kansas City Center
11:00PM 38.1972 -99.0586 112° Southeast 454 522 28,000 -2,220 Descending Kansas City Center
11:01PM 38.1486 -98.9117 113° Southeast 452 520 25,800 -2,220 Descending Kansas City Center
11:02PM 38.1017 -98.7697 113° Southeast 442 509 23,600 -2,220 Descending Kansas City Center
11:03PM 38.0556 -98.6308 113° Southeast 432 497 21,300 -2,640 Descending Kansas City Center
11:03PM 38.0192 -98.5208 113° Southeast 420 483 19,200 -3,000 Descending Kansas City Center
11:04PM 38.0031 -98.4692 112° Southeast 418 481 18,300 -2,580 Descending Kansas City Center
11:04PM 37.9789 -98.3994 114° Southeast 404 465 16,900 -2,220 Descending Kansas City Center
11:05PM 37.9600 -98.3389 112° Southeast 404 465 16,100 -2,220 Descending Kansas City Center
11:05PM 37.9364 -98.2756 115° Southeast 382 440 14,700 -2,700 Descending Kansas City Center
11:06PM 37.9189 -98.2178 111° Southeast 381 438 13,400 -2,640 Descending Kansas City Center
11:06PM 37.8958 -98.1517 114° Southeast 376 433 12,100 -1,800 Descending Kansas City Center
11:07PM 37.8783 -98.0983 113° Southeast 375 432 11,600 -1,140 Descending Kansas City Center
11:07PM 37.8561 -98.0408 116° Southeast 344 396 11,000 -1,020 Descending Kansas City Center
11:08PM 37.8436 -97.9931 108° East 333 383 10,600 -1,620 Descending Kansas City Center
11:08PM 37.8217 -97.9400 118° Southeast 300 345 9,400 -2,220 Descending Kansas City Center
11:09PM 37.8103 -97.8975 109° East 307 353 8,400 -2,880 Descending Kansas City Center
11:09PM 37.7922 -97.8492 115° Southeast 299 344 6,800 -2,580 Descending Kansas City Center
11:10PM 37.7764 -97.8011 113° Southeast 306 352 5,800 -1,980 Descending Kansas City Center
11:10PM 37.7519 -97.7572 125° Southeast 296 341 4,800 -1,860 Descending Kansas City Center
11:11PM 37.7133 -97.6811 123° Southeast 280 322 3,400 -1,140 Descending Kansas City Center
11:12PM 37.6878 -97.6389 127° Southeast 276 318 3,000 -420 Descending Kansas City Center
11:12PM 37.6667 -97.6114 134° Southeast 249 287 3,000  Level Kansas City Center